sensor_id;sensor_type;location;lat;lon;timestamp;P1;durP1;ratioP1;P2;durP2;ratioP2
5995;SDS011;3026;53.612;7.278;2023-04-22T00:00:43;9.07;;;6.60;;
5995;SDS011;3026;53.612;7.278;2023-04-22T00:03:10;8.47;;;6.27;;
5995;SDS011;3026;53.612;7.278;2023-04-22T00:05:38;10.37;;;6.10;;
5995;SDS011;3026;53.612;7.278;2023-04-22T00:08:07;11.60;;;6.60;;
5995;SDS011;3026;53.612;7.278;2023-04-22T00:10:34;9.30;;;6.20;;
5995;SDS011;3026;53.612;7.278;2023-04-22T00:13:01;10.60;;;6.97;;
5995;SDS011;3026;53.612;7.278;2023-04-22T00:15:28;7.90;;;6.73;;
5995;SDS011;3026;53.612;7.278;2023-04-22T00:17:55;10.77;;;6.73;;
5995;SDS011;3026;53.612;7.278;2023-04-22T00:20:23;8.50;;;6.33;;
5995;SDS011;3026;53.612;7.278;2023-04-22T00:22:50;7.83;;;6.67;;
5995;SDS011;3026;53.612;7.278;2023-04-22T00:25:18;10.43;;;6.70;;
5995;SDS011;3026;53.612;7.278;2023-04-22T00:27:45;11.27;;;6.77;;
5995;SDS011;3026;53.612;7.278;2023-04-22T00:30:12;9.27;;;6.67;;
5995;SDS011;3026;53.612;7.278;2023-04-22T00:32:39;8.80;;;6.03;;
5995;SDS011;3026;53.612;7.278;2023-04-22T00:35:06;6.73;;;5.70;;
5995;SDS011;3026;53.612;7.278;2023-04-22T00:37:33;8.47;;;6.27;;
5995;SDS011;3026;53.612;7.278;2023-04-22T00:40:00;8.00;;;5.87;;
5995;SDS011;3026;53.612;7.278;2023-04-22T00:42:29;7.17;;;5.97;;
5995;SDS011;3026;53.612;7.278;2023-04-22T00:44:56;6.97;;;6.10;;
5995;SDS011;3026;53.612;7.278;2023-04-22T00:47:23;7.60;;;6.20;;
5995;SDS011;3026;53.612;7.278;2023-04-22T00:49:52;8.47;;;6.50;;
5995;SDS011;3026;53.612;7.278;2023-04-22T00:52:19;7.87;;;6.10;;
5995;SDS011;3026;53.612;7.278;2023-04-22T00:54:46;11.93;;;6.37;;
5995;SDS011;3026;53.612;7.278;2023-04-22T00:57:13;8.67;;;6.23;;
5995;SDS011;3026;53.612;7.278;2023-04-22T00:59:42;6.97;;;5.90;;
5995;SDS011;3026;53.612;7.278;2023-04-22T01:02:09;8.87;;;5.90;;
5995;SDS011;3026;53.612;7.278;2023-04-22T01:04:37;7.10;;;5.43;;
5995;SDS011;3026;53.612;7.278;2023-04-22T01:07:04;7.53;;;5.93;;
5995;SDS011;3026;53.612;7.278;2023-04-22T01:09:31;9.13;;;5.33;;
5995;SDS011;3026;53.612;7.278;2023-04-22T01:11:58;6.70;;;6.00;;
5995;SDS011;3026;53.612;7.278;2023-04-22T01:14:25;7.93;;;6.70;;
5995;SDS011;3026;53.612;7.278;2023-04-22T01:16:54;9.00;;;6.33;;
5995;SDS011;3026;53.612;7.278;2023-04-22T01:19:21;9.70;;;6.57;;
5995;SDS011;3026;53.612;7.278;2023-04-22T01:21:49;8.67;;;6.03;;
5995;SDS011;3026;53.612;7.278;2023-04-22T01:24:18;11.37;;;6.30;;
5995;SDS011;3026;53.612;7.278;2023-04-22T01:26:45;9.13;;;6.20;;
5995;SDS011;3026;53.612;7.278;2023-04-22T01:29:12;7.73;;;6.17;;
5995;SDS011;3026;53.612;7.278;2023-04-22T01:31:40;7.80;;;5.90;;
5995;SDS011;3026;53.612;7.278;2023-04-22T01:34:07;7.33;;;6.20;;
5995;SDS011;3026;53.612;7.278;2023-04-22T01:36:35;8.43;;;5.70;;
5995;SDS011;3026;53.612;7.278;2023-04-22T01:39:01;8.37;;;5.83;;
5995;SDS011;3026;53.612;7.278;2023-04-22T01:41:30;6.93;;;6.20;;
5995;SDS011;3026;53.612;7.278;2023-04-22T01:43:57;7.60;;;6.20;;
5995;SDS011;3026;53.612;7.278;2023-04-22T01:46:25;9.50;;;5.47;;
5995;SDS011;3026;53.612;7.278;2023-04-22T01:48:52;9.20;;;5.50;;
5995;SDS011;3026;53.612;7.278;2023-04-22T01:51:18;7.97;;;6.20;;
5995;SDS011;3026;53.612;7.278;2023-04-22T01:53:45;6.87;;;5.70;;
5995;SDS011;3026;53.612;7.278;2023-04-22T01:56:13;6.90;;;5.77;;
5995;SDS011;3026;53.612;7.278;2023-04-22T01:58:41;7.97;;;5.87;;
5995;SDS011;3026;53.612;7.278;2023-04-22T02:01:09;7.17;;;5.67;;
5995;SDS011;3026;53.612;7.278;2023-04-22T02:03:36;6.00;;;5.40;;
5995;SDS011;3026;53.612;7.278;2023-04-22T02:06:04;9.03;;;6.07;;
5995;SDS011;3026;53.612;7.278;2023-04-22T02:08:31;7.83;;;5.27;;
5995;SDS011;3026;53.612;7.278;2023-04-22T02:10:58;7.43;;;5.40;;
5995;SDS011;3026;53.612;7.278;2023-04-22T02:13:25;8.67;;;5.67;;
5995;SDS011;3026;53.612;7.278;2023-04-22T02:15:54;7.47;;;6.10;;
5995;SDS011;3026;53.612;7.278;2023-04-22T02:18:20;10.27;;;7.63;;
5995;SDS011;3026;53.612;7.278;2023-04-22T02:20:47;7.03;;;5.73;;
5995;SDS011;3026;53.612;7.278;2023-04-22T02:23:14;7.60;;;6.17;;
5995;SDS011;3026;53.612;7.278;2023-04-22T02:25:46;10.40;;;5.67;;
5995;SDS011;3026;53.612;7.278;2023-04-22T02:28:14;6.37;;;5.50;;
5995;SDS011;3026;53.612;7.278;2023-04-22T02:30:40;6.23;;;5.57;;
5995;SDS011;3026;53.612;7.278;2023-04-22T02:33:09;6.23;;;5.60;;
5995;SDS011;3026;53.612;7.278;2023-04-22T02:35:35;8.87;;;5.47;;
5995;SDS011;3026;53.612;7.278;2023-04-22T02:38:02;8.73;;;5.33;;
5995;SDS011;3026;53.612;7.278;2023-04-22T02:40:29;9.13;;;5.63;;
5995;SDS011;3026;53.612;7.278;2023-04-22T02:42:56;8.20;;;5.53;;
5995;SDS011;3026;53.612;7.278;2023-04-22T02:45:23;7.53;;;6.13;;
5995;SDS011;3026;53.612;7.278;2023-04-22T02:47:49;6.73;;;5.50;;
5995;SDS011;3026;53.612;7.278;2023-04-22T02:50:17;7.67;;;5.93;;
5995;SDS011;3026;53.612;7.278;2023-04-22T02:52:45;7.23;;;5.53;;
5995;SDS011;3026;53.612;7.278;2023-04-22T02:55:11;6.27;;;5.63;;
5995;SDS011;3026;53.612;7.278;2023-04-22T02:57:38;9.40;;;5.67;;
5995;SDS011;3026;53.612;7.278;2023-04-22T03:00:05;7.47;;;5.30;;
5995;SDS011;3026;53.612;7.278;2023-04-22T03:02:34;8.17;;;5.30;;
5995;SDS011;3026;53.612;7.278;2023-04-22T03:05:01;6.30;;;5.30;;
5995;SDS011;3026;53.612;7.278;2023-04-22T03:07:29;9.60;;;5.47;;
5995;SDS011;3026;53.612;7.278;2023-04-22T03:09:56;7.93;;;5.50;;
5995;SDS011;3026;53.612;7.278;2023-04-22T03:12:23;6.10;;;5.50;;
5995;SDS011;3026;53.612;7.278;2023-04-22T03:14:50;7.27;;;5.57;;
5995;SDS011;3026;53.612;7.278;2023-04-22T03:17:16;6.70;;;5.90;;
5995;SDS011;3026;53.612;7.278;2023-04-22T03:19:43;7.33;;;5.67;;
5995;SDS011;3026;53.612;7.278;2023-04-22T03:22:10;7.77;;;5.23;;
5995;SDS011;3026;53.612;7.278;2023-04-22T03:24:38;8.57;;;5.73;;
5995;SDS011;3026;53.612;7.278;2023-04-22T03:27:05;8.93;;;6.17;;
5995;SDS011;3026;53.612;7.278;2023-04-22T03:29:32;8.93;;;5.83;;
5995;SDS011;3026;53.612;7.278;2023-04-22T03:31:59;7.33;;;5.90;;
5995;SDS011;3026;53.612;7.278;2023-04-22T03:34:25;5.93;;;5.07;;
5995;SDS011;3026;53.612;7.278;2023-04-22T03:36:52;10.23;;;5.67;;
5995;SDS011;3026;53.612;7.278;2023-04-22T03:39:19;8.13;;;5.37;;
5995;SDS011;3026;53.612;7.278;2023-04-22T03:41:47;7.60;;;6.07;;
5995;SDS011;3026;53.612;7.278;2023-04-22T03:44:14;6.93;;;5.13;;
5995;SDS011;3026;53.612;7.278;2023-04-22T03:46:40;8.23;;;5.40;;
5995;SDS011;3026;53.612;7.278;2023-04-22T03:49:07;8.43;;;5.53;;
5995;SDS011;3026;53.612;7.278;2023-04-22T03:51:34;7.33;;;6.17;;
5995;SDS011;3026;53.612;7.278;2023-04-22T03:54:01;6.07;;;5.47;;
5995;SDS011;3026;53.612;7.278;2023-04-22T03:56:27;9.07;;;6.13;;
5995;SDS011;3026;53.612;7.278;2023-04-22T03:58:55;7.50;;;5.73;;
5995;SDS011;3026;53.612;7.278;2023-04-22T04:01:22;8.17;;;6.00;;
5995;SDS011;3026;53.612;7.278;2023-04-22T04:03:49;7.33;;;5.90;;
5995;SDS011;3026;53.612;7.278;2023-04-22T04:06:16;7.33;;;6.17;;
5995;SDS011;3026;53.612;7.278;2023-04-22T04:08:42;8.53;;;5.97;;
5995;SDS011;3026;53.612;7.278;2023-04-22T04:11:09;8.07;;;5.70;;
5995;SDS011;3026;53.612;7.278;2023-04-22T04:13:36;7.70;;;6.00;;
5995;SDS011;3026;53.612;7.278;2023-04-22T04:16:04;8.70;;;6.00;;
5995;SDS011;3026;53.612;7.278;2023-04-22T04:18:31;8.17;;;6.13;;
5995;SDS011;3026;53.612;7.278;2023-04-22T04:20:58;7.97;;;6.00;;
5995;SDS011;3026;53.612;7.278;2023-04-22T04:23:25;6.60;;;5.83;;
5995;SDS011;3026;53.612;7.278;2023-04-22T04:25:52;7.03;;;6.33;;
5995;SDS011;3026;53.612;7.278;2023-04-22T04:28:19;9.57;;;6.07;;
5995;SDS011;3026;53.612;7.278;2023-04-22T04:30:47;6.80;;;5.73;;
5995;SDS011;3026;53.612;7.278;2023-04-22T04:33:15;9.40;;;6.47;;
5995;SDS011;3026;53.612;7.278;2023-04-22T04:35:41;6.77;;;5.87;;
5995;SDS011;3026;53.612;7.278;2023-04-22T04:38:09;10.47;;;6.63;;
5995;SDS011;3026;53.612;7.278;2023-04-22T04:40:36;9.37;;;6.40;;
5995;SDS011;3026;53.612;7.278;2023-04-22T04:43:02;6.57;;;5.93;;
5995;SDS011;3026;53.612;7.278;2023-04-22T04:45:32;10.93;;;7.83;;
5995;SDS011;3026;53.612;7.278;2023-04-22T04:48:00;7.70;;;6.47;;
5995;SDS011;3026;53.612;7.278;2023-04-22T04:50:29;8.97;;;6.30;;
5995;SDS011;3026;53.612;7.278;2023-04-22T04:52:56;8.00;;;6.63;;
5995;SDS011;3026;53.612;7.278;2023-04-22T04:55:22;10.37;;;6.27;;
5995;SDS011;3026;53.612;7.278;2023-04-22T04:57:49;8.80;;;6.73;;
5995;SDS011;3026;53.612;7.278;2023-04-22T05:00:16;8.33;;;7.00;;
5995;SDS011;3026;53.612;7.278;2023-04-22T05:02:43;7.87;;;5.83;;
5995;SDS011;3026;53.612;7.278;2023-04-22T05:05:10;8.40;;;6.63;;
5995;SDS011;3026;53.612;7.278;2023-04-22T05:07:38;7.20;;;6.27;;
5995;SDS011;3026;53.612;7.278;2023-04-22T05:10:05;10.90;;;6.67;;
5995;SDS011;3026;53.612;7.278;2023-04-22T05:12:33;7.37;;;5.80;;
5995;SDS011;3026;53.612;7.278;2023-04-22T05:14:59;9.97;;;6.47;;
5995;SDS011;3026;53.612;7.278;2023-04-22T05:17:26;7.70;;;6.23;;
5995;SDS011;3026;53.612;7.278;2023-04-22T05:19:53;8.03;;;6.77;;
5995;SDS011;3026;53.612;7.278;2023-04-22T05:22:20;9.17;;;7.03;;
5995;SDS011;3026;53.612;7.278;2023-04-22T05:24:49;10.27;;;6.90;;
5995;SDS011;3026;53.612;7.278;2023-04-22T05:27:15;8.43;;;6.73;;
5995;SDS011;3026;53.612;7.278;2023-04-22T05:29:43;7.63;;;6.77;;
5995;SDS011;3026;53.612;7.278;2023-04-22T05:32:10;8.07;;;6.57;;
5995;SDS011;3026;53.612;7.278;2023-04-22T05:34:37;8.53;;;6.63;;
5995;SDS011;3026;53.612;7.278;2023-04-22T05:37:04;8.50;;;6.97;;
5995;SDS011;3026;53.612;7.278;2023-04-22T05:39:30;10.43;;;6.83;;
5995;SDS011;3026;53.612;7.278;2023-04-22T05:41:59;9.63;;;6.80;;
5995;SDS011;3026;53.612;7.278;2023-04-22T05:44:26;9.20;;;6.93;;
5995;SDS011;3026;53.612;7.278;2023-04-22T05:46:52;8.80;;;6.50;;
5995;SDS011;3026;53.612;7.278;2023-04-22T05:49:19;9.03;;;7.03;;
5995;SDS011;3026;53.612;7.278;2023-04-22T05:51:46;7.57;;;6.57;;
5995;SDS011;3026;53.612;7.278;2023-04-22T05:54:13;9.27;;;8.03;;
5995;SDS011;3026;53.612;7.278;2023-04-22T05:56:39;8.40;;;7.27;;
5995;SDS011;3026;53.612;7.278;2023-04-22T05:59:08;8.87;;;7.40;;
5995;SDS011;3026;53.612;7.278;2023-04-22T06:01:34;9.03;;;7.40;;
5995;SDS011;3026;53.612;7.278;2023-04-22T06:04:02;9.33;;;7.77;;
5995;SDS011;3026;53.612;7.278;2023-04-22T06:06:30;7.93;;;6.93;;
5995;SDS011;3026;53.612;7.278;2023-04-22T06:08:57;7.70;;;6.70;;
5995;SDS011;3026;53.612;7.278;2023-04-22T06:11:24;11.83;;;7.43;;
5995;SDS011;3026;53.612;7.278;2023-04-22T06:13:50;8.80;;;7.77;;
5995;SDS011;3026;53.612;7.278;2023-04-22T06:16:19;8.57;;;7.00;;
5995;SDS011;3026;53.612;7.278;2023-04-22T06:18:47;9.67;;;7.33;;
5995;SDS011;3026;53.612;7.278;2023-04-22T06:21:14;9.80;;;7.40;;
5995;SDS011;3026;53.612;7.278;2023-04-22T06:23:40;8.73;;;7.03;;
5995;SDS011;3026;53.612;7.278;2023-04-22T06:26:08;10.80;;;7.40;;
5995;SDS011;3026;53.612;7.278;2023-04-22T06:28:35;9.60;;;7.93;;
5995;SDS011;3026;53.612;7.278;2023-04-22T06:31:01;9.73;;;7.60;;
5995;SDS011;3026;53.612;7.278;2023-04-22T06:33:29;9.37;;;7.33;;
5995;SDS011;3026;53.612;7.278;2023-04-22T06:35:56;10.60;;;7.40;;
5995;SDS011;3026;53.612;7.278;2023-04-22T06:38:24;10.37;;;7.13;;
5995;SDS011;3026;53.612;7.278;2023-04-22T06:40:50;9.80;;;7.57;;
5995;SDS011;3026;53.612;7.278;2023-04-22T06:43:17;8.47;;;6.93;;
5995;SDS011;3026;53.612;7.278;2023-04-22T06:45:44;9.67;;;7.47;;
5995;SDS011;3026;53.612;7.278;2023-04-22T06:48:11;11.87;;;7.63;;
5995;SDS011;3026;53.612;7.278;2023-04-22T06:50:39;12.90;;;7.40;;
5995;SDS011;3026;53.612;7.278;2023-04-22T06:53:05;8.23;;;7.33;;
5995;SDS011;3026;53.612;7.278;2023-04-22T06:55:34;7.53;;;6.83;;
5995;SDS011;3026;53.612;7.278;2023-04-22T06:58:01;10.50;;;7.47;;
5995;SDS011;3026;53.612;7.278;2023-04-22T07:00:27;12.63;;;7.47;;
5995;SDS011;3026;53.612;7.278;2023-04-22T07:02:54;9.47;;;7.47;;
5995;SDS011;3026;53.612;7.278;2023-04-22T07:05:21;11.83;;;7.77;;
5995;SDS011;3026;53.612;7.278;2023-04-22T07:07:49;10.67;;;7.50;;
5995;SDS011;3026;53.612;7.278;2023-04-22T07:10:16;15.27;;;7.17;;
5995;SDS011;3026;53.612;7.278;2023-04-22T07:12:43;8.17;;;6.93;;
5995;SDS011;3026;53.612;7.278;2023-04-22T07:15:10;8.53;;;7.63;;
5995;SDS011;3026;53.612;7.278;2023-04-22T07:17:37;12.30;;;6.87;;
5995;SDS011;3026;53.612;7.278;2023-04-22T07:20:04;10.77;;;7.10;;
5995;SDS011;3026;53.612;7.278;2023-04-22T07:22:31;7.13;;;6.43;;
5995;SDS011;3026;53.612;7.278;2023-04-22T07:25:00;9.10;;;7.20;;
5995;SDS011;3026;53.612;7.278;2023-04-22T07:27:26;8.70;;;6.80;;
5995;SDS011;3026;53.612;7.278;2023-04-22T07:29:53;9.30;;;7.00;;
5995;SDS011;3026;53.612;7.278;2023-04-22T07:32:20;8.43;;;6.80;;
5995;SDS011;3026;53.612;7.278;2023-04-22T07:34:47;10.33;;;6.50;;
5995;SDS011;3026;53.612;7.278;2023-04-22T07:37:13;11.63;;;7.17;;
5995;SDS011;3026;53.612;7.278;2023-04-22T07:39:40;10.57;;;7.00;;
5995;SDS011;3026;53.612;7.278;2023-04-22T07:42:08;7.70;;;6.90;;
5995;SDS011;3026;53.612;7.278;2023-04-22T07:44:35;9.17;;;6.47;;
5995;SDS011;3026;53.612;7.278;2023-04-22T07:47:02;7.03;;;6.17;;
5995;SDS011;3026;53.612;7.278;2023-04-22T07:49:29;9.63;;;7.10;;
5995;SDS011;3026;53.612;7.278;2023-04-22T07:51:56;9.93;;;6.57;;
5995;SDS011;3026;53.612;7.278;2023-04-22T07:54:23;10.23;;;6.63;;
5995;SDS011;3026;53.612;7.278;2023-04-22T07:56:49;8.87;;;7.40;;
5995;SDS011;3026;53.612;7.278;2023-04-22T07:59:18;7.97;;;6.70;;
5995;SDS011;3026;53.612;7.278;2023-04-22T08:01:44;10.33;;;6.93;;
5995;SDS011;3026;53.612;7.278;2023-04-22T08:04:11;8.87;;;7.20;;
5995;SDS011;3026;53.612;7.278;2023-04-22T08:06:38;13.37;;;7.20;;
5995;SDS011;3026;53.612;7.278;2023-04-22T08:09:05;10.40;;;7.47;;
5995;SDS011;3026;53.612;7.278;2023-04-22T08:11:31;9.17;;;6.47;;
5995;SDS011;3026;53.612;7.278;2023-04-22T08:13:58;8.80;;;6.53;;
5995;SDS011;3026;53.612;7.278;2023-04-22T08:16:26;11.40;;;7.40;;
5995;SDS011;3026;53.612;7.278;2023-04-22T08:18:53;9.70;;;6.53;;
5995;SDS011;3026;53.612;7.278;2023-04-22T08:21:21;9.87;;;6.93;;
5995;SDS011;3026;53.612;7.278;2023-04-22T08:23:48;8.50;;;7.10;;
5995;SDS011;3026;53.612;7.278;2023-04-22T08:26:16;7.10;;;6.40;;
5995;SDS011;3026;53.612;7.278;2023-04-22T08:28:43;8.83;;;6.73;;
5995;SDS011;3026;53.612;7.278;2023-04-22T08:31:09;7.73;;;6.43;;
5995;SDS011;3026;53.612;7.278;2023-04-22T08:33:38;8.07;;;6.90;;
5995;SDS011;3026;53.612;7.278;2023-04-22T08:36:05;8.13;;;6.10;;
5995;SDS011;3026;53.612;7.278;2023-04-22T08:38:33;8.10;;;6.80;;
5995;SDS011;3026;53.612;7.278;2023-04-22T08:40:59;13.67;;;7.10;;
5995;SDS011;3026;53.612;7.278;2023-04-22T08:43:27;7.43;;;6.73;;
5995;SDS011;3026;53.612;7.278;2023-04-22T08:45:54;8.40;;;7.50;;
5995;SDS011;3026;53.612;7.278;2023-04-22T08:48:21;11.93;;;7.23;;
5995;SDS011;3026;53.612;7.278;2023-04-22T08:50:49;6.37;;;5.57;;
5995;SDS011;3026;53.612;7.278;2023-04-22T08:53:16;7.07;;;6.37;;
5995;SDS011;3026;53.612;7.278;2023-04-22T08:55:43;7.90;;;6.80;;
5995;SDS011;3026;53.612;7.278;2023-04-22T08:58:10;9.67;;;6.17;;
5995;SDS011;3026;53.612;7.278;2023-04-22T09:00:37;7.23;;;6.53;;
5995;SDS011;3026;53.612;7.278;2023-04-22T09:03:07;7.90;;;6.30;;
5995;SDS011;3026;53.612;7.278;2023-04-22T09:05:35;9.33;;;6.20;;
5995;SDS011;3026;53.612;7.278;2023-04-22T09:08:04;8.30;;;6.13;;
5995;SDS011;3026;53.612;7.278;2023-04-22T09:10:34;6.83;;;6.13;;
5995;SDS011;3026;53.612;7.278;2023-04-22T09:13:02;8.07;;;6.67;;
5995;SDS011;3026;53.612;7.278;2023-04-22T09:15:30;7.70;;;5.97;;
5995;SDS011;3026;53.612;7.278;2023-04-22T09:17:58;8.10;;;6.17;;
5995;SDS011;3026;53.612;7.278;2023-04-22T09:20:25;7.60;;;6.27;;
5995;SDS011;3026;53.612;7.278;2023-04-22T09:22:52;6.53;;;5.93;;
5995;SDS011;3026;53.612;7.278;2023-04-22T09:25:23;7.23;;;5.77;;
5995;SDS011;3026;53.612;7.278;2023-04-22T09:27:52;12.07;;;6.37;;
5995;SDS011;3026;53.612;7.278;2023-04-22T09:30:22;6.93;;;5.80;;
5995;SDS011;3026;53.612;7.278;2023-04-22T09:32:52;7.20;;;6.30;;
5995;SDS011;3026;53.612;7.278;2023-04-22T09:35:27;6.90;;;5.77;;
5995;SDS011;3026;53.612;7.278;2023-04-22T09:37:55;11.17;;;6.57;;
5995;SDS011;3026;53.612;7.278;2023-04-22T09:40:23;6.33;;;5.73;;
5995;SDS011;3026;53.612;7.278;2023-04-22T09:42:50;6.30;;;5.70;;
5995;SDS011;3026;53.612;7.278;2023-04-22T09:45:25;6.33;;;5.70;;
5995;SDS011;3026;53.612;7.278;2023-04-22T09:47:54;7.03;;;6.27;;
5995;SDS011;3026;53.612;7.278;2023-04-22T09:50:23;6.67;;;5.97;;
5995;SDS011;3026;53.612;7.278;2023-04-22T09:52:55;7.03;;;5.57;;
5995;SDS011;3026;53.612;7.278;2023-04-22T09:55:25;6.80;;;6.10;;
5995;SDS011;3026;53.612;7.278;2023-04-22T09:57:53;7.00;;;5.90;;
5995;SDS011;3026;53.612;7.278;2023-04-22T10:00:22;7.67;;;6.90;;
5995;SDS011;3026;53.612;7.278;2023-04-22T10:02:51;9.90;;;6.90;;
5995;SDS011;3026;53.612;7.278;2023-04-22T10:05:17;8.20;;;6.20;;
5995;SDS011;3026;53.612;7.278;2023-04-22T10:07:44;8.70;;;5.83;;
5995;SDS011;3026;53.612;7.278;2023-04-22T10:10:12;10.07;;;5.77;;
5995;SDS011;3026;53.612;7.278;2023-04-22T10:12:40;6.20;;;5.57;;
5995;SDS011;3026;53.612;7.278;2023-04-22T10:15:07;7.03;;;6.20;;
5995;SDS011;3026;53.612;7.278;2023-04-22T10:17:35;6.20;;;5.60;;
5995;SDS011;3026;53.612;7.278;2023-04-22T10:20:04;8.17;;;6.37;;
5995;SDS011;3026;53.612;7.278;2023-04-22T10:22:37;5.90;;;5.40;;
5995;SDS011;3026;53.612;7.278;2023-04-22T10:25:05;6.70;;;5.93;;
5995;SDS011;3026;53.612;7.278;2023-04-22T10:27:37;6.63;;;6.00;;
5995;SDS011;3026;53.612;7.278;2023-04-22T10:30:07;6.17;;;5.60;;
5995;SDS011;3026;53.612;7.278;2023-04-22T10:32:35;6.33;;;5.60;;
5995;SDS011;3026;53.612;7.278;2023-04-22T10:35:06;5.93;;;5.00;;
5995;SDS011;3026;53.612;7.278;2023-04-22T10:37:40;5.30;;;4.80;;
5995;SDS011;3026;53.612;7.278;2023-04-22T10:40:08;5.10;;;4.53;;
5995;SDS011;3026;53.612;7.278;2023-04-22T10:42:38;7.77;;;4.90;;
5995;SDS011;3026;53.612;7.278;2023-04-22T10:45:10;5.93;;;5.27;;
5995;SDS011;3026;53.612;7.278;2023-04-22T10:47:39;6.57;;;5.53;;
5995;SDS011;3026;53.612;7.278;2023-04-22T10:50:14;7.07;;;5.70;;
5995;SDS011;3026;53.612;7.278;2023-04-22T10:52:44;5.40;;;4.83;;
5995;SDS011;3026;53.612;7.278;2023-04-22T10:55:13;5.33;;;4.80;;
5995;SDS011;3026;53.612;7.278;2023-04-22T10:57:40;6.03;;;4.47;;
5995;SDS011;3026;53.612;7.278;2023-04-22T11:00:29;6.27;;;4.50;;
5995;SDS011;3026;53.612;7.278;2023-04-22T11:03:13;5.67;;;5.03;;
5995;SDS011;3026;53.612;7.278;2023-04-22T11:05:41;6.00;;;4.40;;
5995;SDS011;3026;53.612;7.278;2023-04-22T11:08:17;4.80;;;4.37;;
5995;SDS011;3026;53.612;7.278;2023-04-22T11:10:48;5.53;;;4.13;;
5995;SDS011;3026;53.612;7.278;2023-04-22T11:13:18;5.90;;;4.33;;
5995;SDS011;3026;53.612;7.278;2023-04-22T11:15:48;4.77;;;4.03;;
5995;SDS011;3026;53.612;7.278;2023-04-22T11:18:19;6.37;;;3.70;;
5995;SDS011;3026;53.612;7.278;2023-04-22T11:20:47;4.77;;;4.37;;
5995;SDS011;3026;53.612;7.278;2023-04-22T11:23:18;5.90;;;4.83;;
5995;SDS011;3026;53.612;7.278;2023-04-22T11:25:47;6.47;;;5.20;;
5995;SDS011;3026;53.612;7.278;2023-04-22T11:28:19;5.57;;;4.67;;
5995;SDS011;3026;53.612;7.278;2023-04-22T11:30:48;6.00;;;5.17;;
5995;SDS011;3026;53.612;7.278;2023-04-22T11:33:15;5.57;;;5.07;;
5995;SDS011;3026;53.612;7.278;2023-04-22T11:35:42;4.70;;;4.27;;
5995;SDS011;3026;53.612;7.278;2023-04-22T11:38:09;4.83;;;4.33;;
5995;SDS011;3026;53.612;7.278;2023-04-22T11:40:37;7.87;;;5.77;;
5995;SDS011;3026;53.612;7.278;2023-04-22T11:43:05;5.60;;;5.07;;
5995;SDS011;3026;53.612;7.278;2023-04-22T11:45:33;5.90;;;5.40;;
5995;SDS011;3026;53.612;7.278;2023-04-22T11:48:03;5.97;;;5.23;;
5995;SDS011;3026;53.612;7.278;2023-04-22T11:50:32;5.33;;;4.83;;
5995;SDS011;3026;53.612;7.278;2023-04-22T11:53:01;5.33;;;4.40;;
5995;SDS011;3026;53.612;7.278;2023-04-22T11:55:30;6.90;;;4.47;;
5995;SDS011;3026;53.612;7.278;2023-04-22T11:57:59;4.30;;;3.90;;
5995;SDS011;3026;53.612;7.278;2023-04-22T12:00:28;3.77;;;3.33;;
5995;SDS011;3026;53.612;7.278;2023-04-22T12:02:58;5.33;;;3.60;;
5995;SDS011;3026;53.612;7.278;2023-04-22T12:05:35;8.83;;;4.10;;
5995;SDS011;3026;53.612;7.278;2023-04-22T12:08:06;3.87;;;2.87;;
5995;SDS011;3026;53.612;7.278;2023-04-22T12:10:37;5.53;;;3.80;;
5995;SDS011;3026;53.612;7.278;2023-04-22T12:13:06;4.67;;;3.40;;
5995;SDS011;3026;53.612;7.278;2023-04-22T12:15:37;3.87;;;3.33;;
5995;SDS011;3026;53.612;7.278;2023-04-22T12:18:04;4.80;;;3.40;;
5995;SDS011;3026;53.612;7.278;2023-04-22T12:20:32;6.73;;;3.70;;
5995;SDS011;3026;53.612;7.278;2023-04-22T12:23:02;7.83;;;3.90;;
5995;SDS011;3026;53.612;7.278;2023-04-22T12:25:29;4.57;;;4.10;;
5995;SDS011;3026;53.612;7.278;2023-04-22T12:27:58;4.73;;;3.40;;
5995;SDS011;3026;53.612;7.278;2023-04-22T12:30:25;4.93;;;3.50;;
5995;SDS011;3026;53.612;7.278;2023-04-22T12:32:52;4.87;;;3.33;;
5995;SDS011;3026;53.612;7.278;2023-04-22T12:35:18;3.33;;;2.77;;
5995;SDS011;3026;53.612;7.278;2023-04-22T12:37:48;3.63;;;2.70;;
5995;SDS011;3026;53.612;7.278;2023-04-22T12:40:15;2.80;;;2.53;;
5995;SDS011;3026;53.612;7.278;2023-04-22T12:42:42;3.80;;;3.50;;
5995;SDS011;3026;53.612;7.278;2023-04-22T12:45:09;5.60;;;3.73;;
5995;SDS011;3026;53.612;7.278;2023-04-22T12:47:36;4.13;;;3.63;;
5995;SDS011;3026;53.612;7.278;2023-04-22T12:50:04;6.13;;;4.13;;
5995;SDS011;3026;53.612;7.278;2023-04-22T12:52:32;4.43;;;3.70;;
5995;SDS011;3026;53.612;7.278;2023-04-22T12:55:01;5.63;;;3.57;;
5995;SDS011;3026;53.612;7.278;2023-04-22T12:57:29;5.90;;;3.50;;
5995;SDS011;3026;53.612;7.278;2023-04-22T12:59:56;3.97;;;3.67;;
5995;SDS011;3026;53.612;7.278;2023-04-22T13:02:23;6.13;;;3.93;;
5995;SDS011;3026;53.612;7.278;2023-04-22T13:04:50;7.33;;;4.17;;
5995;SDS011;3026;53.612;7.278;2023-04-22T13:07:17;4.13;;;3.73;;
5995;SDS011;3026;53.612;7.278;2023-04-22T13:09:44;6.33;;;3.67;;
5995;SDS011;3026;53.612;7.278;2023-04-22T13:12:13;5.10;;;3.83;;
5995;SDS011;3026;53.612;7.278;2023-04-22T13:14:40;6.70;;;3.77;;
5995;SDS011;3026;53.612;7.278;2023-04-22T13:17:06;4.43;;;3.80;;
5995;SDS011;3026;53.612;7.278;2023-04-22T13:19:33;5.23;;;3.30;;
5995;SDS011;3026;53.612;7.278;2023-04-22T13:22:00;3.90;;;3.50;;
5995;SDS011;3026;53.612;7.278;2023-04-22T13:24:27;4.20;;;3.80;;
5995;SDS011;3026;53.612;7.278;2023-04-22T13:26:54;5.47;;;3.50;;
5995;SDS011;3026;53.612;7.278;2023-04-22T13:29:23;4.47;;;4.03;;
5995;SDS011;3026;53.612;7.278;2023-04-22T13:31:50;6.37;;;3.80;;
5995;SDS011;3026;53.612;7.278;2023-04-22T13:34:17;5.27;;;3.93;;
5995;SDS011;3026;53.612;7.278;2023-04-22T13:36:43;4.20;;;3.80;;
5995;SDS011;3026;53.612;7.278;2023-04-22T13:39:11;5.53;;;3.73;;
5995;SDS011;3026;53.612;7.278;2023-04-22T13:41:37;5.43;;;3.50;;
5995;SDS011;3026;53.612;7.278;2023-04-22T13:44:04;5.07;;;3.57;;
5995;SDS011;3026;53.612;7.278;2023-04-22T13:46:32;8.23;;;4.17;;
5995;SDS011;3026;53.612;7.278;2023-04-22T13:48:59;3.77;;;3.33;;
5995;SDS011;3026;53.612;7.278;2023-04-22T13:51:26;5.63;;;4.30;;
5995;SDS011;3026;53.612;7.278;2023-04-22T13:53:53;5.83;;;3.67;;
5995;SDS011;3026;53.612;7.278;2023-04-22T13:56:20;6.77;;;4.00;;
5995;SDS011;3026;53.612;7.278;2023-04-22T13:58:46;5.60;;;3.70;;
5995;SDS011;3026;53.612;7.278;2023-04-22T14:01:13;5.07;;;3.50;;
5995;SDS011;3026;53.612;7.278;2023-04-22T14:03:41;3.60;;;3.30;;
5995;SDS011;3026;53.612;7.278;2023-04-22T14:06:09;6.60;;;3.23;;
5995;SDS011;3026;53.612;7.278;2023-04-22T14:08:36;5.20;;;2.87;;
5995;SDS011;3026;53.612;7.278;2023-04-22T14:11:05;6.30;;;3.53;;
5995;SDS011;3026;53.612;7.278;2023-04-22T14:13:33;4.33;;;3.40;;
5995;SDS011;3026;53.612;7.278;2023-04-22T14:16:00;5.73;;;3.37;;
5995;SDS011;3026;53.612;7.278;2023-04-22T14:18:32;4.03;;;3.40;;
5995;SDS011;3026;53.612;7.278;2023-04-22T14:21:03;11.73;;;4.37;;
5995;SDS011;3026;53.612;7.278;2023-04-22T14:23:31;8.13;;;4.53;;
5995;SDS011;3026;53.612;7.278;2023-04-22T14:25:58;5.77;;;3.60;;
5995;SDS011;3026;53.612;7.278;2023-04-22T14:28:25;6.00;;;3.67;;
5995;SDS011;3026;53.612;7.278;2023-04-22T14:30:53;5.93;;;3.37;;
5995;SDS011;3026;53.612;7.278;2023-04-22T14:33:20;5.20;;;4.07;;
5995;SDS011;3026;53.612;7.278;2023-04-22T14:35:49;5.27;;;4.37;;
5995;SDS011;3026;53.612;7.278;2023-04-22T14:38:18;4.10;;;3.77;;
5995;SDS011;3026;53.612;7.278;2023-04-22T14:40:46;4.93;;;3.83;;
5995;SDS011;3026;53.612;7.278;2023-04-22T14:43:14;6.33;;;4.40;;
5995;SDS011;3026;53.612;7.278;2023-04-22T14:45:41;4.83;;;3.73;;
5995;SDS011;3026;53.612;7.278;2023-04-22T14:48:08;6.30;;;4.03;;
5995;SDS011;3026;53.612;7.278;2023-04-22T14:50:35;4.53;;;4.03;;
5995;SDS011;3026;53.612;7.278;2023-04-22T14:53:02;5.07;;;4.13;;
5995;SDS011;3026;53.612;7.278;2023-04-22T14:55:30;6.43;;;4.27;;
5995;SDS011;3026;53.612;7.278;2023-04-22T14:57:59;4.47;;;4.07;;
5995;SDS011;3026;53.612;7.278;2023-04-22T15:00:26;4.10;;;3.70;;
5995;SDS011;3026;53.612;7.278;2023-04-22T15:02:54;4.70;;;3.67;;
5995;SDS011;3026;53.612;7.278;2023-04-22T15:05:21;7.63;;;3.90;;
5995;SDS011;3026;53.612;7.278;2023-04-22T15:07:48;8.07;;;4.53;;
5995;SDS011;3026;53.612;7.278;2023-04-22T15:10:15;4.37;;;3.70;;
5995;SDS011;3026;53.612;7.278;2023-04-22T15:12:43;5.67;;;4.17;;
5995;SDS011;3026;53.612;7.278;2023-04-22T15:15:10;4.23;;;3.80;;
5995;SDS011;3026;53.612;7.278;2023-04-22T15:17:40;6.97;;;4.47;;